Time;durP1;ratioP1;P1;durP2;ratioP2;P2;SDS_P1;SDS_P2;PMS_P1;PMS_P2;Temp;Humidity;BMP_temperature;BMP_pressure;BME280_temperature;BME280_humidity;BME280_pressure;Samples;Min_cycle;Max_cycle;Signal;HPM_P1;HPM_P2
2021/09/01 00:00:47;;;;;;;12.45;3.80;;;;;;;16.09;69.55;103011.78;5068075;28;20020;-66
2021/09/01 00:03:12;;;;;;;12.65;4.07;;;;;;;16.08;69.43;103010.06;5070065;28;20045;-70
2021/09/01 00:05:38;;;;;;;14.43;4.05;;;;;;;16.08;69.51;103012.72;5068030;28;20025;-66
2021/09/01 00:08:03;;;;;;;14.43;4.10;;;;;;;16.08;69.65;103010.06;5068101;28;20020;-72
2021/09/01 00:10:29;;;;;;;13.95;3.80;;;;;;;16.08;69.54;103010.06;5067760;28;20357;-66
2021/09/01 00:12:54;;;;;;;14.57;4.22;;;;;;;16.08;69.11;103010.06;5068736;28;20044;-70
2021/09/01 00:15:19;;;;;;;10.27;3.80;;;;;;;16.09;69.57;103002.00;5086690;28;20028;-67
2021/09/01 00:17:45;;;;;;;12.02;3.50;;;;;;;16.08;69.20;103012.72;5087971;28;20040;-67
2021/09/01 00:20:11;;;;;;;15.75;3.95;;;;;;;16.10;70.48;103013.53;5089365;28;20032;-68
2021/09/01 00:22:38;;;;;;;11.60;3.78;;;;;;;16.08;70.94;103010.06;5092003;28;20078;-66
2021/09/01 00:25:05;;;;;;;13.30;3.80;;;;;;;16.04;70.30;103012.81;5087978;28;20043;-65
2021/09/01 00:27:30;;;;;;;14.98;4.05;;;;;;;16.04;70.66;103011.97;5091479;28;20108;-66
2021/09/01 00:29:55;;;;;;;14.45;4.00;;;;;;;16.01;70.73;103012.94;5091408;28;20355;-66
2021/09/01 00:32:20;;;;;;;13.52;4.20;;;;;;;16.00;70.92;103013.00;5092198;28;20031;-68
2021/09/01 00:34:46;;;;;;;11.52;4.32;;;;;;;15.98;70.49;103010.34;5087443;28;20096;-67
2021/09/01 00:37:12;;;;;;;15.25;4.20;;;;;;;15.98;71.61;103012.16;5091565;28;20163;-68
2021/09/01 00:39:38;;;;;;;12.95;4.50;;;;;;;15.97;71.03;103013.06;5091218;28;20081;-66
2021/09/01 00:42:05;;;;;;;11.52;4.13;;;;;;;15.92;70.92;103013.25;5091722;28;20079;-68
2021/09/01 00:44:30;;;;;;;15.90;3.83;;;;;;;15.93;71.26;103019.44;5089343;28;20054;-66
2021/09/01 00:46:57;;;;;;;14.02;4.05;;;;;;;15.92;71.05;103010.56;5078149;28;20020;-66
2021/09/01 00:49:24;;;;;;;13.80;3.75;;;;;;;15.91;70.87;103003.47;5070800;28;20105;-67
2021/09/01 00:51:53;;;;;;;12.43;3.42;;;;;;;15.93;70.40;103006.94;5071081;28;20021;-66
2021/09/01 00:54:20;;;;;;;14.25;4.53;;;;;;;15.91;70.22;103000.81;5071897;28;20085;-65
2021/09/01 00:56:52;;;;;;;12.20;3.90;;;;;;;15.92;70.65;103010.56;5071647;28;20058;-66
2021/09/01 00:59:23;;;;;;;15.23;4.15;;;;;;;15.91;71.13;103007.94;5070084;28;20181;-66
2021/09/01 01:01:49;;;;;;;15.30;3.90;;;;;;;15.92;71.90;103005.22;5070691;28;20047;-66
2021/09/01 01:04:15;;;;;;;15.95;4.57;;;;;;;15.91;69.76;102995.47;5070314;28;20127;-66
2021/09/01 01:06:40;;;;;;;13.00;3.70;;;;;;;15.88;70.24;102999.09;5072387;28;20169;-66
2021/09/01 01:09:07;;;;;;;11.52;3.88;;;;;;;15.91;70.47;103006.16;5070512;28;20428;-67
2021/09/01 01:11:32;;;;;;;15.52;4.13;;;;;;;15.88;70.81;103008.91;5074105;28;20183;-68
2021/09/01 01:13:57;;;;;;;13.27;4.40;;;;;;;15.85;71.82;103004.53;5070048;28;20496;-67
2021/09/01 01:16:24;;;;;;;17.23;4.80;;;;;;;15.88;71.08;103003.56;5071455;28;20029;-66
2021/09/01 01:18:52;;;;;;;13.30;4.10;;;;;;;15.88;70.85;103015.13;5071421;28;20028;-66
2021/09/01 01:21:22;;;;;;;11.68;4.22;;;;;;;15.87;70.62;103004.50;5070434;28;20024;-66
2021/09/01 01:24:00;;;;;;;13.20;4.18;;;;;;;15.87;71.17;103009.84;5071528;28;20048;-66
2021/09/01 01:26:27;;;;;;;12.07;4.30;;;;;;;15.86;71.53;103002.75;5069879;28;20052;-67
2021/09/01 01:29:05;;;;;;;18.98;4.75;;;;;;;15.84;70.22;103000.13;5071112;28;20140;-66
2021/09/01 01:31:30;;;;;;;16.80;4.57;;;;;;;15.83;70.66;103001.06;5069766;28;20028;-66
2021/09/01 01:33:57;;;;;;;11.77;3.88;;;;;;;15.86;70.35;103003.63;5079634;28;20107;-65
2021/09/01 01:36:25;;;;;;;15.88;4.43;;;;;;;15.86;69.94;103005.44;5090196;28;20448;-66
2021/09/01 01:38:51;;;;;;;12.95;4.30;;;;;;;15.87;69.13;103000.03;5086991;28;20110;-66
2021/09/01 01:41:16;;;;;;;14.25;4.50;;;;;;;15.86;69.55;103005.44;5069794;28;20032;-65
2021/09/01 01:43:45;;;;;;;14.70;3.95;;;;;;;15.86;69.46;103006.28;5070571;28;20035;-65
2021/09/01 01:46:11;;;;;;;11.75;3.30;;;;;;;15.89;69.09;103002.63;5069839;28;20032;-66
2021/09/01 01:48:37;;;;;;;11.82;3.72;;;;;;;15.91;68.60;103002.59;5070212;28;20107;-66
2021/09/01 01:51:02;;;;;;;12.30;3.90;;;;;;;15.88;68.92;102999.09;5071066;28;20035;-66
2021/09/01 01:53:29;;;;;;;13.65;3.72;;;;;;;15.86;69.03;102995.59;5070424;28;20443;-66
2021/09/01 01:55:54;;;;;;;11.65;3.72;;;;;;;15.85;68.69;102998.31;5070786;28;20129;-69
2021/09/01 01:58:19;;;;;;;14.32;4.20;;;;;;;15.84;68.82;102986.78;5069541;28;20117;-65
2021/09/01 02:00:45;;;;;;;14.88;4.32;;;;;;;15.86;69.27;102994.75;5070857;28;20055;-66
2021/09/01 02:03:10;;;;;;;15.40;3.97;;;;;;;15.91;69.00;102994.56;5070391;28;20059;-66
2021/09/01 02:05:36;;;;;;;10.13;3.55;;;;;;;15.91;68.63;102992.78;5086231;28;20095;-66
2021/09/01 02:08:01;;;;;;;13.65;3.95;;;;;;;15.88;69.01;103003.56;5089843;28;20024;-67
2021/09/01 02:10:26;;;;;;;9.68;3.67;;;;;;;15.88;69.60;102991.09;5087898;28;20120;-67
2021/09/01 02:12:52;;;;;;;11.10;3.80;;;;;;;15.88;69.91;102999.09;5087477;28;20388;-66
2021/09/01 02:15:17;;;;;;;15.15;4.28;;;;;;;15.85;71.15;103001.88;5089609;28;20366;-66
2021/09/01 02:17:43;;;;;;;10.95;3.63;;;;;;;15.82;71.11;102993.06;5089602;28;20028;-67
2021/09/01 02:20:10;;;;;;;13.55;3.45;;;;;;;15.81;69.97;103000.22;5089424;28;20031;-67
2021/09/01 02:22:36;;;;;;;14.32;3.90;;;;;;;15.83;70.16;102995.72;5087778;28;20039;-68
2021/09/01 02:25:04;;;;;;;12.10;3.78;;;;;;;15.82;69.09;103003.75;5087286;28;20044;-66
2021/09/01 02:27:29;;;;;;;14.63;3.72;;;;;;;15.82;70.15;103004.66;5089279;28;20387;-65
2021/09/01 02:29:55;;;;;;;12.10;3.90;;;;;;;15.84;69.63;102997.47;5088921;28;20055;-66
2021/09/01 02:32:21;;;;;;;9.38;3.40;;;;;;;15.84;70.82;103007.25;5087677;28;20024;-68
2021/09/01 02:34:46;;;;;;;12.70;4.28;;;;;;;15.81;71.38;102999.31;5087542;28;20447;-67
2021/09/01 02:37:12;;;;;;;15.73;3.90;;;;;;;15.79;71.07;102998.50;5088976;28;20036;-67
2021/09/01 02:39:37;;;;;;;13.27;4.07;;;;;;;15.77;69.90;103006.56;5089270;28;20348;-66
2021/09/01 02:42:03;;;;;;;12.63;3.85;;;;;;;15.74;70.65;102998.63;5087140;28;20061;-66
2021/09/01 02:44:28;;;;;;;9.45;3.60;;;;;;;15.71;71.19;102994.25;5086487;28;20658;-68
2021/09/01 02:46:53;;;;;;;13.25;3.70;;;;;;;15.70;71.29;102991.63;5089194;28;20074;-66
2021/09/01 02:49:19;;;;;;;10.65;3.55;;;;;;;15.70;71.72;102996.97;5088604;28;20489;-66
2021/09/01 02:51:44;;;;;;;12.32;4.10;;;;;;;15.67;70.05;103000.63;5089106;28;20036;-66
2021/09/01 02:54:09;;;;;;;13.48;4.00;;;;;;;15.65;70.38;102999.81;5087365;28;20055;-66
2021/09/01 02:56:35;;;;;;;10.65;3.85;;;;;;;15.65;70.82;102986.47;5083361;28;20483;-70
2021/09/01 02:59:00;;;;;;;12.52;3.63;;;;;;;15.67;70.69;103002.44;5082798;28;20056;-68
2021/09/01 03:01:25;;;;;;;11.07;3.58;;;;;;;15.67;71.06;102997.97;5088811;28;20080;-70
2021/09/01 03:03:51;;;;;;;12.38;3.97;;;;;;;15.65;71.47;102993.59;5086875;28;20020;-65
2021/09/01 03:06:16;;;;;;;11.60;3.50;;;;;;;15.65;72.02;102988.25;5074889;28;20029;-66
2021/09/01 03:08:41;;;;;;;10.52;3.70;;;;;;;15.65;72.15;102985.56;5068102;28;20028;-67
2021/09/01 03:11:07;;;;;;;13.55;3.58;;;;;;;15.64;71.80;102984.72;5068407;28;20028;-66
2021/09/01 03:13:33;;;;;;;9.82;3.70;;;;;;;15.66;72.18;102984.66;5068700;28;20024;-68
2021/09/01 03:15:58;;;;;;;15.57;3.80;;;;;;;15.68;71.78;102986.34;5070187;28;20037;-67
2021/09/01 03:18:24;;;;;;;13.55;4.10;;;;;;;15.68;71.81;102990.84;5068102;28;20028;-68
2021/09/01 03:20:49;;;;;;;11.43;3.97;;;;;;;15.63;71.12;102993.63;5068248;28;20180;-68
2021/09/01 03:23:14;;;;;;;12.88;3.95;;;;;;;15.65;71.75;102988.25;5068372;28;20029;-66
2021/09/01 03:25:40;;;;;;;11.73;4.13;;;;;;;15.65;71.91;102982.91;5069611;28;20162;-69
2021/09/01 03:28:05;;;;;;;13.20;3.60;;;;;;;15.63;71.32;102990.09;5068612;28;20046;-65
2021/09/01 03:30:31;;;;;;;11.07;4.05;;;;;;;15.63;71.76;102990.09;5068099;28;20119;-67
2021/09/01 03:32:57;;;;;;;11.05;3.95;;;;;;;15.62;71.88;102980.34;5068370;28;20475;-66
2021/09/01 03:35:23;;;;;;;12.75;4.00;;;;;;;15.58;72.99;102990.25;5069177;28;20032;-68
2021/09/01 03:37:48;;;;;;;10.90;4.07;;;;;;;15.60;72.84;102993.75;5069693;28;20535;-71
2021/09/01 03:40:14;;;;;;;13.50;3.80;;;;;;;15.63;73.23;102993.63;5068126;28;20036;-65
2021/09/01 03:42:42;;;;;;;13.40;4.18;;;;;;;15.61;72.88;102991.94;5068396;28;20085;-74
2021/09/01 03:45:09;;;;;;;11.48;3.65;;;;;;;15.59;72.98;102989.31;5068191;28;20028;-66
2021/09/01 03:47:34;;;;;;;10.15;4.40;;;;;;;15.59;72.41;102994.66;5071215;28;20046;-67
2021/09/01 03:50:01;;;;;;;13.27;4.20;;;;;;;15.57;72.40;102989.38;5068001;28;20036;-68
2021/09/01 03:52:26;;;;;;;9.07;4.05;;;;;;;15.55;72.23;102990.34;5068674;28;20037;-66
2021/09/01 03:54:51;;;;;;;10.48;3.72;;;;;;;15.55;72.31;102995.69;5071004;28;20035;-67
2021/09/01 03:57:17;;;;;;;14.75;3.88;;;;;;;15.54;73.25;102984.13;5074298;28;20073;-66
2021/09/01 03:59:42;;;;;;;12.50;4.18;;;;;;;15.53;73.15;102994.84;5087996;28;20130;-73
2021/09/01 04:02:08;;;;;;;15.07;4.15;;;;;;;15.54;72.98;102989.47;5073564;28;20363;-72
2021/09/01 04:04:34;;;;;;;12.25;3.88;;;;;;;15.50;73.57;102995.81;5072111;28;20459;-68
2021/09/01 04:07:03;;;;;;;13.68;4.10;;;;;;;15.47;74.06;102995.91;5071817;28;20124;-71
2021/09/01 04:09:29;;;;;;;13.70;3.85;;;;;;;15.44;73.88;102995.16;5088370;28;20036;-68
2021/09/01 04:11:54;;;;;;;13.27;4.00;;;;;;;15.46;74.78;102991.50;5090343;28;20107;-69
2021/09/01 04:14:19;;;;;;;16.83;4.40;;;;;;;15.52;73.51;102988.63;5092161;28;20104;-67
2021/09/01 04:16:45;;;;;;;9.75;3.63;;;;;;;15.57;73.58;102993.84;5091686;28;20450;-68
2021/09/01 04:19:10;;;;;;;8.40;3.60;;;;;;;15.58;73.33;102992.91;5088534;28;20515;-67
2021/09/01 04:21:36;;;;;;;10.57;3.53;;;;;;;15.53;73.65;102993.06;5092033;28;20108;-68
2021/09/01 04:24:01;;;;;;;10.95;3.83;;;;;;;15.51;73.69;102992.25;5091943;28;20073;-67
2021/09/01 04:26:26;;;;;;;12.60;3.80;;;;;;;15.46;74.28;102996.84;5091693;28;20063;-70
2021/09/01 04:28:52;;;;;;;10.07;3.70;;;;;;;15.46;74.25;102991.50;5088653;28;20447;-71
2021/09/01 04:31:17;;;;;;;8.68;3.72;;;;;;;15.40;74.30;102994.38;5091960;28;20340;-72
2021/09/01 04:33:42;;;;;;;11.10;3.97;;;;;;;15.36;74.80;102993.59;5091683;28;20020;-68
2021/09/01 04:36:08;;;;;;;12.32;3.80;;;;;;;15.34;74.76;103002.56;5091732;28;20028;-70
2021/09/01 04:38:33;;;;;;;14.20;3.80;;;;;;;15.33;74.55;102999.03;5091599;28;20039;-66
2021/09/01 04:40:58;;;;;;;14.98;4.00;;;;;;;15.35;75.18;102998.97;5088541;28;20093;-69
2021/09/01 04:43:23;;;;;;;12.02;4.18;;;;;;;15.36;75.28;102996.25;5091411;28;20100;-73
2021/09/01 04:45:49;;;;;;;12.85;4.00;;;;;;;15.34;75.23;102998.09;5091683;28;20340;-69
2021/09/01 04:48:14;;;;;;;10.77;4.00;;;;;;;15.32;75.36;102999.94;5091336;28;20153;-68
2021/09/01 04:50:39;;;;;;;10.20;4.53;;;;;;;15.33;75.39;102995.47;5087722;28;20032;-67
2021/09/01 04:53:05;;;;;;;15.70;4.65;;;;;;;15.31;75.62;102992.00;5091214;28;20401;-68
2021/09/01 04:55:30;;;;;;;12.27;3.65;;;;;;;15.29;76.05;103004.50;5091503;28;20020;-67
2021/09/01 04:57:56;;;;;;;12.73;4.07;;;;;;;15.27;75.58;102995.66;5091541;28;20039;-68
2021/09/01 05:00:21;;;;;;;13.95;4.68;;;;;;;15.29;75.94;102992.00;5087793;28;20039;-67
2021/09/01 05:02:46;;;;;;;14.50;4.03;;;;;;;15.35;76.49;102993.63;5078002;28;20043;-67
2021/09/01 05:05:12;;;;;;;15.32;4.38;;;;;;;15.42;75.31;102999.66;5069776;28;20029;-67
2021/09/01 05:07:37;;;;;;;10.07;3.50;;;;;;;15.46;74.75;102999.53;5070715;28;20054;-67
2021/09/01 05:10:03;;;;;;;15.07;4.38;;;;;;;15.46;75.20;102998.63;5073363;28;20027;-68
2021/09/01 05:12:29;;;;;;;14.10;4.25;;;;;;;15.43;75.61;102999.59;5077433;28;20073;-68
2021/09/01 05:14:55;;;;;;;12.77;4.00;;;;;;;15.44;74.89;103001.34;5090805;28;20023;-67
2021/09/01 05:17:21;;;;;;;8.48;3.55;;;;;;;15.48;74.61;103004.81;5091173;28;20036;-67
2021/09/01 05:19:46;;;;;;;10.88;4.18;;;;;;;15.48;75.15;103004.81;5090858;28;20432;-67
2021/09/01 05:22:16;;;;;;;15.75;4.25;;;;;;;15.44;75.34;103005.84;5073591;28;20437;-70
2021/09/01 05:25:06;;;;;;;11.88;3.70;;;;;;;15.44;74.98;103012.03;5070155;28;20170;-68
2021/09/01 05:27:35;;;;;;;9.13;3.70;;;;;;;15.48;74.39;103004.81;5070372;28;20314;-65
2021/09/01 05:30:02;;;;;;;11.93;4.45;;;;;;;15.50;74.38;103010.97;5070336;28;20028;-67
2021/09/01 05:32:30;;;;;;;10.43;3.70;;;;;;;15.52;74.11;103001.97;5071208;28;20056;-67
2021/09/01 05:34:58;;;;;;;12.43;3.88;;;;;;;15.54;74.91;103012.63;5070291;28;20056;-66
2021/09/01 05:37:24;;;;;;;8.55;3.72;;;;;;;15.57;74.00;103016.09;5070770;28;20028;-68
2021/09/01 05:39:51;;;;;;;12.27;3.60;;;;;;;15.62;73.73;103015.06;5070050;28;20097;-66
2021/09/01 05:42:22;;;;;;;11.00;3.72;;;;;;;15.66;73.39;103017.56;5076357;28;20024;-67
2021/09/01 05:44:48;;;;;;;17.70;3.65;;;;;;;15.68;73.25;103013.06;5090353;28;20050;-67
2021/09/01 05:47:15;;;;;;;10.73;3.55;;;;;;;15.77;72.71;103013.69;5090644;28;20032;-68
2021/09/01 05:49:42;;;;;;;12.38;3.63;;;;;;;15.75;72.10;103013.72;5078646;28;20129;-69
2021/09/01 05:52:09;;;;;;;11.35;3.83;;;;;;;15.81;72.97;103010.91;5069600;28;20025;-70
2021/09/01 05:54:35;;;;;;;12.35;3.70;;;;;;;15.79;72.94;103007.38;5069898;28;20030;-67
2021/09/01 05:57:14;;;;;;;12.73;3.80;;;;;;;15.79;72.93;103004.69;5070211;28;20025;-67
2021/09/01 05:59:56;;;;;;;9.20;3.22;;;;;;;15.79;71.01;103011.84;5069795;28;20468;-67
2021/09/01 06:02:39;;;;;;;13.82;3.53;;;;;;;15.84;71.94;103013.50;5067895;28;20069;-68
2021/09/01 06:05:06;;;;;;;11.00;3.80;;;;;;;15.87;70.78;103013.38;5072212;28;20033;-67
2021/09/01 06:07:32;;;;;;;12.05;3.25;;;;;;;15.91;70.22;103021.28;5068777;28;20097;-67
2021/09/01 06:10:00;;;;;;;10.40;3.40;;;;;;;15.93;70.79;103022.13;5069117;28;20028;-67
2021/09/01 06:12:27;;;;;;;11.75;3.83;;;;;;;15.96;70.61;103022.91;5067146;28;20028;-70
2021/09/01 06:14:53;;;;;;;9.68;3.47;;;;;;;15.99;70.91;103022.78;5085913;28;20412;-67
2021/09/01 06:17:18;;;;;;;13.50;3.60;;;;;;;16.00;71.15;103021.88;5089329;28;20039;-67
2021/09/01 06:19:44;;;;;;;6.28;3.28;;;;;;;16.07;71.00;103016.31;5089602;28;20378;-66
2021/09/01 06:22:09;;;;;;;14.00;3.60;;;;;;;16.06;70.96;103020.78;5089686;28;20024;-67
2021/09/01 06:24:35;;;;;;;8.43;3.58;;;;;;;16.12;68.97;103015.22;5074908;28;20044;-71
2021/09/01 06:27:01;;;;;;;9.52;3.70;;;;;;;16.17;70.21;103029.31;5078431;28;20024;-69
2021/09/01 06:29:27;;;;;;;9.00;3.55;;;;;;;16.20;71.13;103029.22;5089194;28;20085;-65
2021/09/01 06:31:53;;;;;;;10.70;3.55;;;;;;;16.25;70.36;103034.41;5055065;28;20033;-67
2021/09/01 06:34:18;;;;;;;10.68;4.10;;;;;;;16.24;71.47;103029.13;5062645;28;20048;-65
2021/09/01 06:36:44;;;;;;;10.85;3.88;;;;;;;16.25;72.08;103031.72;5059091;28;20164;-64
2021/09/01 06:39:09;;;;;;;12.82;4.07;;;;;;;16.22;69.95;103035.38;5055725;28;20128;-65
2021/09/01 06:41:35;;;;;;;12.80;3.85;;;;;;;16.25;70.41;103042.41;5049336;28;20025;-68
2021/09/01 06:44:00;;;;;;;9.27;3.50;;;;;;;16.31;72.11;103041.38;5062407;28;20024;-65
2021/09/01 06:46:25;;;;;;;11.38;4.00;;;;;;;16.34;71.44;103039.47;5070188;28;20032;-63
2021/09/01 06:48:51;;;;;;;9.88;4.00;;;;;;;16.40;72.28;103035.69;5069013;28;20040;-67
2021/09/01 06:51:16;;;;;;;12.63;4.22;;;;;;;16.46;71.38;103029.25;5081008;28;20120;-64
2021/09/01 06:53:41;;;;;;;11.63;4.20;;;;;;;16.46;68.22;103034.59;5068689;28;20156;-66
2021/09/01 06:56:08;;;;;;;11.48;4.13;;;;;;;16.47;68.94;103026.53;5070104;28;20044;-64
2021/09/01 06:58:34;;;;;;;12.48;3.92;;;;;;;16.52;69.05;103026.34;5069153;28;20036;-64
2021/09/01 07:01:00;;;;;;;15.93;4.15;;;;;;;16.58;69.44;103028.81;5067766;28;20044;-65
2021/09/01 07:03:26;;;;;;;12.75;4.15;;;;;;;16.66;69.00;103020.53;5087110;28;20036;-66
2021/09/01 07:05:51;;;;;;;10.05;4.50;;;;;;;16.78;68.44;103032.59;5080380;28;20071;-69
2021/09/01 07:08:17;;;;;;;16.67;4.30;;;;;;;16.81;68.57;103025.31;5081119;28;20104;-66
2021/09/01 07:10:44;;;;;;;11.68;4.10;;;;;;;16.82;68.45;103029.75;5087130;28;20032;-67
2021/09/01 07:13:10;;;;;;;10.77;3.88;;;;;;;16.78;67.23;103030.78;5089307;28;20051;-73
2021/09/01 07:15:36;;;;;;;13.25;4.20;;;;;;;16.76;66.83;103042.47;5079167;28;20028;-64
2021/09/01 07:18:01;;;;;;;10.63;3.95;;;;;;;16.72;67.12;103044.38;5068374;28;20036;-67
2021/09/01 07:20:26;;;;;;;10.50;3.90;;;;;;;16.75;67.67;103043.41;5064874;28;20028;-64
2021/09/01 07:22:52;;;;;;;10.43;3.65;;;;;;;16.74;67.00;103042.53;5068147;28;20016;-67
2021/09/01 07:25:17;;;;;;;10.15;3.60;;;;;;;16.75;66.58;103044.25;5067948;28;20111;-68
2021/09/01 07:27:43;;;;;;;14.80;4.55;;;;;;;16.81;66.93;103043.19;5069305;28;20190;-70
2021/09/01 07:30:08;;;;;;;12.82;4.20;;;;;;;16.93;68.17;103055.28;5066034;28;20200;-71
2021/09/01 07:32:34;;;;;;;12.40;3.72;;;;;;;17.09;67.95;103052.91;5066607;28;20056;-66
2021/09/01 07:34:59;;;;;;;12.38;4.03;;;;;;;17.16;66.98;103051.75;5068760;28;20449;-67
2021/09/01 07:37:25;;;;;;;14.38;3.92;;;;;;;17.16;67.16;103058.00;5048916;28;20362;-67
2021/09/01 07:39:50;;;;;;;9.48;3.83;;;;;;;17.18;67.89;103068.63;5068255;28;20032;-69
2021/09/01 07:42:16;;;;;;;9.43;3.33;;;;;;;17.18;67.34;103074.00;5067978;28;20032;-65
2021/09/01 07:44:41;;;;;;;11.15;3.40;;;;;;;17.12;67.56;103079.56;5067158;28;20063;-67
2021/09/01 07:47:07;;;;;;;11.48;4.07;;;;;;;17.15;67.44;103082.16;5076342;28;20016;-67
2021/09/01 07:49:33;;;;;;;12.13;4.05;;;;;;;17.14;68.48;103078.56;5088306;28;20020;-64
2021/09/01 07:51:59;;;;;;;11.63;3.88;;;;;;;17.12;69.08;103083.13;5087506;28;20168;-65
2021/09/01 07:54:24;;;;;;;8.85;3.72;;;;;;;17.09;68.46;103088.59;5071350;28;20501;-67
2021/09/01 07:56:50;;;;;;;9.50;3.15;;;;;;;16.99;68.31;103085.34;5059521;28;20144;-66
2021/09/01 07:59:15;;;;;;;9.00;3.60;;;;;;;17.03;68.04;103084.34;5048009;28;20032;-64
2021/09/01 08:01:40;;;;;;;13.00;4.00;;;;;;;17.03;67.98;103086.13;5055127;28;20025;-68
2021/09/01 08:04:05;;;;;;;11.43;4.00;;;;;;;17.01;67.49;103088.00;5065509;28;20441;-71
2021/09/01 08:06:31;;;;;;;16.00;3.65;;;;;;;16.93;68.05;103088.28;5048695;28;20115;-66
2021/09/01 08:08:56;;;;;;;9.38;3.22;;;;;;;16.94;67.53;103102.53;5067704;28;20020;-64
2021/09/01 08:11:21;;;;;;;11.48;3.50;;;;;;;16.89;67.35;103097.28;5068335;28;20051;-71
2021/09/01 08:13:47;;;;;;;12.73;4.75;;;;;;;16.86;67.84;103098.28;5067761;28;20033;-71
2021/09/01 08:16:12;;;;;;;11.07;4.00;;;;;;;16.92;67.46;103105.25;5067412;28;20030;-67
2021/09/01 08:18:37;;;;;;;10.02;3.90;;;;;;;16.97;68.42;103099.72;5049240;28;20131;-67
2021/09/01 08:21:03;;;;;;;10.13;3.40;;;;;;;16.99;67.66;103109.44;5067784;28;20032;-66
2021/09/01 08:23:28;;;;;;;11.25;3.15;;;;;;;16.99;67.23;103109.44;5067507;28;20025;-65
2021/09/01 08:25:53;;;;;;;10.38;3.70;;;;;;;17.03;67.87;103108.44;5067899;28;20072;-68
2021/09/01 08:28:19;;;;;;;12.65;3.50;;;;;;;17.00;67.90;103105.00;5066709;28;20123;-64
2021/09/01 08:30:44;;;;;;;16.58;3.72;;;;;;;16.86;70.44;103122.34;5067513;28;20040;-65
2021/09/01 08:33:10;;;;;;;10.70;2.95;;;;;;;16.74;71.41;103111.22;5069682;28;20024;-65
2021/09/01 08:35:35;;;;;;;11.75;3.53;;;;;;;16.83;72.14;103118.94;5068845;28;20032;-67
2021/09/01 08:38:00;;;;;;;9.13;3.17;;;;;;;16.73;72.94;103114.81;5067105;28;20033;-69
2021/09/01 08:40:26;;;;;;;10.07;3.25;;;;;;;16.75;74.16;103129.03;5067359;28;20045;-65
2021/09/01 08:42:51;;;;;;;12.50;4.15;;;;;;;16.67;74.57;103121.25;5077593;28;20042;-67
2021/09/01 08:45:17;;;;;;;8.85;3.10;;;;;;;16.70;74.59;103126.50;5091293;28;20084;-67
2021/09/01 08:47:43;;;;;;;9.77;3.53;;;;;;;16.88;72.91;103125.88;5079109;28;20034;-67
2021/09/01 08:50:10;;;;;;;10.40;3.72;;;;;;;17.11;71.95;103129.56;5063306;28;20048;-66
2021/09/01 08:52:38;;;;;;;11.50;3.83;;;;;;;17.44;70.55;103134.63;5091168;28;20120;-65
2021/09/01 08:55:08;;;;;;;12.25;3.92;;;;;;;17.76;70.21;103121.81;5078712;28;20028;-65
2021/09/01 08:57:35;;;;;;;8.02;3.30;;;;;;;18.02;69.13;103133.34;5071587;28;20028;-68
2021/09/01 09:00:01;;;;;;;7.40;2.90;;;;;;;18.27;67.77;103121.59;5070450;28;20099;-67
2021/09/01 09:02:28;;;;;;;7.85;3.20;;;;;;;18.26;66.52;103130.56;5071155;28;20033;-64
2021/09/01 09:04:54;;;;;;;10.27;3.20;;;;;;;18.42;65.94;103125.47;5070664;28;20042;-67
2021/09/01 09:07:22;;;;;;;9.05;2.60;;;;;;;18.68;63.39;103116.28;5070580;28;20329;-65
2021/09/01 09:09:48;;;;;;;9.30;3.47;;;;;;;19.00;62.72;103122.09;5070156;28;20525;-66
2021/09/01 09:12:13;;;;;;;9.23;3.60;;;;;;;19.30;62.10;103116.31;5071027;28;20092;-67
2021/09/01 09:14:40;;;;;;;11.98;3.70;;;;;;;19.51;62.33;103113.56;5069879;28;20040;-67
2021/09/01 09:17:11;;;;;;;8.38;3.17;;;;;;;19.63;60.71;103115.69;5069787;28;20058;-66
2021/09/01 09:19:54;;;;;;;11.20;3.50;;;;;;;19.45;60.89;103112.91;5070418;28;20036;-66
2021/09/01 09:22:23;;;;;;;9.52;3.00;;;;;;;19.44;60.39;103119.22;5050368;28;20049;-66
2021/09/01 09:25:39;;;;;;;9.68;3.40;;;;;;;19.13;61.31;103125.09;5052083;28;20132;-67
2021/09/01 09:28:07;;;;;;;6.20;2.47;;;;;;;18.64;63.39;103125.41;5028074;28;20039;-66
2021/09/01 09:30:45;;;;;;;11.07;2.90;;;;;;;18.21;64.63;103122.75;5027563;28;20167;-67
2021/09/01 09:33:21;;;;;;;11.18;3.05;;;;;;;18.05;65.99;103124.28;5026720;28;20422;-69
2021/09/01 09:36:01;;;;;;;15.38;3.08;;;;;;;18.08;66.33;103122.38;5027224;28;20124;-65
2021/09/01 09:38:39;;;;;;;9.07;2.95;;;;;;;18.38;66.25;103116.66;5026766;28;20123;-65
2021/09/01 09:41:08;;;;;;;7.47;2.80;;;;;;;18.64;65.51;103114.69;5027344;28;20071;-67
2021/09/01 09:43:35;;;;;;;7.43;3.20;;;;;;;19.18;62.72;103106.13;5027946;28;20049;-67
2021/09/01 09:46:08;;;;;;;7.35;2.45;;;;;;;19.97;59.84;103106.91;5026536;28;20066;-65
2021/09/01 09:48:35;;;;;;;6.70;2.50;;;;;;;20.13;59.48;103109.69;5022475;28;20476;-67
2021/09/01 09:51:03;;;;;;;7.45;2.90;;;;;;;20.32;58.01;103115.97;5026870;28;20025;-66
2021/09/01 09:53:54;;;;;;;5.70;2.30;;;;;;;20.48;57.82;103108.88;5026595;28;20033;-65
2021/09/01 09:56:29;;;;;;;7.18;2.20;;;;;;;20.53;55.09;103112.22;5023223;28;20041;-66
2021/09/01 09:58:57;;;;;;;5.10;1.92;;;;;;;20.69;55.10;103103.34;5038187;28;20127;-67
2021/09/01 10:01:24;;;;;;;6.32;2.28;;;;;;;21.11;53.57;103110.13;5055572;28;20078;-67
2021/09/01 10:03:51;;;;;;;5.32;1.50;;;;;;;20.97;55.64;103104.63;5072995;28;20040;-67
2021/09/01 10:06:18;;;;;;;3.92;1.35;;;;;;;20.86;52.70;103103.38;5069705;28;20467;-66
2021/09/01 10:08:48;;;;;;;5.13;1.80;;;;;;;21.28;52.75;103106.53;5069785;28;20040;-64
2021/09/01 10:11:16;;;;;;;8.07;2.28;;;;;;;21.46;53.87;103110.06;5074492;28;20130;-69
2021/09/01 10:13:43;;;;;;;8.13;2.53;;;;;;;21.63;51.20;103098.34;5089883;28;20107;-67
2021/09/01 10:16:15;;;;;;;5.25;2.08;;;;;;;21.84;53.04;103081.91;5074470;28;20017;-66
2021/09/01 10:18:43;;;;;;;3.50;1.90;;;;;;;21.82;50.95;103087.41;5073960;28;20056;-67
2021/09/01 10:21:09;;;;;;;8.60;2.50;;;;;;;21.51;52.25;103102.59;5066605;28;20028;-63
2021/09/01 10:23:46;;;;;;;4.68;2.10;;;;;;;21.34;52.18;103092.72;5068968;28;20103;-69
2021/09/01 10:26:32;;;;;;;5.32;1.90;;;;;;;20.73;53.68;103092.38;5076987;28;20062;-69
2021/09/01 10:29:00;;;;;;;5.00;2.00;;;;;;;20.74;54.16;103094.13;5076044;28;20142;-67
2021/09/01 10:31:30;;;;;;;5.82;2.20;;;;;;;20.55;54.80;103085.19;5084698;28;20036;-71
2021/09/01 10:34:01;;;;;;;5.68;2.25;;;;;;;20.44;55.05;103091.16;5082554;28;20033;-69
2021/09/01 10:36:27;;;;;;;5.35;2.17;;;;;;;20.38;55.09;103083.38;5070064;28;20090;-68
2021/09/01 10:39:10;;;;;;;5.28;1.85;;;;;;;20.46;55.39;103079.38;5072465;28;20048;-68
2021/09/01 10:41:37;;;;;;;4.25;2.00;;;;;;;20.41;55.22;103092.19;5076649;28;20125;-68
2021/09/01 10:44:25;;;;;;;4.68;1.85;;;;;;;20.38;56.15;103086.94;5084532;28;20044;-69
2021/09/01 10:46:50;;;;;;;7.53;2.22;;;;;;;20.17;55.62;103093.41;5067851;28;20434;-68
2021/09/01 10:49:17;;;;;;;7.07;1.95;;;;;;;19.87;56.99;103092.16;5068458;28;20038;-70
2021/09/01 10:52:03;;;;;;;5.43;1.98;;;;;;;19.67;57.60;103086.81;5067854;28;20108;-69
2021/09/01 10:54:33;;;;;;;7.35;2.30;;;;;;;19.55;58.03;103083.78;5071626;28;20112;-69
2021/09/01 10:57:01;;;;;;;6.00;2.07;;;;;;;19.38;59.26;103076.50;5050405;28;20032;-69
2021/09/01 10:59:29;;;;;;;5.93;2.30;;;;;;;19.46;58.12;103074.34;5068917;28;20044;-69
2021/09/01 11:02:09;;;;;;;8.52;2.30;;;;;;;19.73;58.69;103079.38;5068392;28;20047;-68
2021/09/01 11:04:35;;;;;;;7.60;2.28;;;;;;;19.93;57.99;103075.72;5085609;28;20036;-72
2021/09/01 11:07:04;;;;;;;6.00;2.47;;;;;;;20.18;58.10;103074.50;5088692;28;20020;-69
2021/09/01 11:09:30;;;;;;;6.85;3.00;;;;;;;20.35;56.78;103070.09;5072800;28;20044;-71
2021/09/01 11:11:57;;;;;;;6.97;2.50;;;;;;;20.46;56.82;103067.72;5071591;28;20150;-70
2021/09/01 11:14:31;;;;;;;3.92;2.10;;;;;;;20.41;56.91;103064.38;5068802;28;20040;-69
2021/09/01 11:17:00;;;;;;;5.18;2.20;;;;;;;20.92;54.93;103070.72;5068353;28;20484;-69
2021/09/01 11:19:27;;;;;;;6.82;2.08;;;;;;;21.33;54.85;103064.03;5068760;28;20107;-71